sensor_id;sensor_type;location;lat;lon;timestamp;P1;durP1;ratioP1;P2;durP2;ratioP2
52740;SDS011;38634;52.138;9.912;2023-04-29T00:01:35;3.80;;;2.35;;
52740;SDS011;38634;52.138;9.912;2023-04-29T00:04:20;5.68;;;2.42;;
52740;SDS011;38634;52.138;9.912;2023-04-29T00:07:04;10.60;;;3.03;;
52740;SDS011;38634;52.138;9.912;2023-04-29T00:09:50;3.55;;;2.08;;
52740;SDS011;38634;52.138;9.912;2023-04-29T00:12:35;4.82;;;2.55;;
52740;SDS011;38634;52.138;9.912;2023-04-29T00:15:20;5.03;;;3.33;;
52740;SDS011;38634;52.138;9.912;2023-04-29T00:18:05;3.38;;;2.17;;
52740;SDS011;38634;52.138;9.912;2023-04-29T00:20:50;4.15;;;2.70;;
52740;SDS011;38634;52.138;9.912;2023-04-29T00:23:34;3.33;;;2.92;;
52740;SDS011;38634;52.138;9.912;2023-04-29T00:26:19;4.60;;;2.72;;
52740;SDS011;38634;52.138;9.912;2023-04-29T00:29:03;4.90;;;3.15;;
52740;SDS011;38634;52.138;9.912;2023-04-29T00:31:48;9.85;;;3.25;;
52740;SDS011;38634;52.138;9.912;2023-04-29T00:34:33;6.82;;;2.85;;
52740;SDS011;38634;52.138;9.912;2023-04-29T00:37:18;4.60;;;2.97;;
52740;SDS011;38634;52.138;9.912;2023-04-29T00:40:02;5.82;;;3.55;;
52740;SDS011;38634;52.138;9.912;2023-04-29T00:42:49;4.72;;;2.33;;
52740;SDS011;38634;52.138;9.912;2023-04-29T00:45:34;3.20;;;2.55;;
52740;SDS011;38634;52.138;9.912;2023-04-29T00:48:18;3.22;;;2.58;;
52740;SDS011;38634;52.138;9.912;2023-04-29T00:51:03;3.75;;;2.97;;
52740;SDS011;38634;52.138;9.912;2023-04-29T00:53:48;7.07;;;3.47;;
52740;SDS011;38634;52.138;9.912;2023-04-29T00:56:34;3.20;;;2.75;;
52740;SDS011;38634;52.138;9.912;2023-04-29T00:59:19;5.30;;;3.10;;
52740;SDS011;38634;52.138;9.912;2023-04-29T01:02:04;4.03;;;2.55;;
52740;SDS011;38634;52.138;9.912;2023-04-29T01:04:49;3.47;;;2.65;;
52740;SDS011;38634;52.138;9.912;2023-04-29T01:07:36;4.38;;;3.03;;
52740;SDS011;38634;52.138;9.912;2023-04-29T01:10:45;2.47;;;2.25;;
52740;SDS011;38634;52.138;9.912;2023-04-29T01:13:57;6.00;;;2.65;;
52740;SDS011;38634;52.138;9.912;2023-04-29T01:16:44;5.13;;;2.65;;
52740;SDS011;38634;52.138;9.912;2023-04-29T01:19:54;4.78;;;2.67;;
52740;SDS011;38634;52.138;9.912;2023-04-29T01:22:40;2.97;;;2.60;;
52740;SDS011;38634;52.138;9.912;2023-04-29T01:25:24;8.75;;;3.55;;
52740;SDS011;38634;52.138;9.912;2023-04-29T01:31:40;3.33;;;2.58;;
52740;SDS011;38634;52.138;9.912;2023-04-29T01:40:29;5.03;;;3.28;;
52740;SDS011;38634;52.138;9.912;2023-04-29T01:43:24;5.47;;;3.17;;
52740;SDS011;38634;52.138;9.912;2023-04-29T01:46:14;6.43;;;3.67;;
52740;SDS011;38634;52.138;9.912;2023-04-29T01:49:02;3.72;;;2.55;;
52740;SDS011;38634;52.138;9.912;2023-04-29T01:51:46;6.13;;;3.88;;
52740;SDS011;38634;52.138;9.912;2023-04-29T01:54:31;8.25;;;4.05;;
52740;SDS011;38634;52.138;9.912;2023-04-29T01:57:18;4.25;;;3.03;;
52740;SDS011;38634;52.138;9.912;2023-04-29T02:00:03;3.47;;;2.53;;
52740;SDS011;38634;52.138;9.912;2023-04-29T02:02:49;4.03;;;2.45;;
52740;SDS011;38634;52.138;9.912;2023-04-29T02:05:33;2.63;;;2.42;;
52740;SDS011;38634;52.138;9.912;2023-04-29T02:08:18;4.63;;;3.42;;
52740;SDS011;38634;52.138;9.912;2023-04-29T02:11:03;4.28;;;2.83;;
52740;SDS011;38634;52.138;9.912;2023-04-29T02:13:48;5.13;;;3.28;;
52740;SDS011;38634;52.138;9.912;2023-04-29T02:16:32;4.45;;;3.30;;
52740;SDS011;38634;52.138;9.912;2023-04-29T02:19:17;4.32;;;2.72;;
52740;SDS011;38634;52.138;9.912;2023-04-29T02:22:01;5.85;;;3.83;;
52740;SDS011;38634;52.138;9.912;2023-04-29T02:24:46;4.97;;;3.28;;
52740;SDS011;38634;52.138;9.912;2023-04-29T02:27:31;5.32;;;3.00;;
52740;SDS011;38634;52.138;9.912;2023-04-29T02:30:15;4.85;;;2.92;;
52740;SDS011;38634;52.138;9.912;2023-04-29T02:33:00;4.53;;;2.92;;
52740;SDS011;38634;52.138;9.912;2023-04-29T02:35:45;5.95;;;3.58;;
52740;SDS011;38634;52.138;9.912;2023-04-29T02:38:29;5.88;;;3.80;;
52740;SDS011;38634;52.138;9.912;2023-04-29T02:41:17;4.15;;;2.88;;
52740;SDS011;38634;52.138;9.912;2023-04-29T02:44:01;4.72;;;2.63;;
52740;SDS011;38634;52.138;9.912;2023-04-29T02:46:46;5.47;;;3.65;;
52740;SDS011;38634;52.138;9.912;2023-04-29T02:49:31;5.60;;;2.92;;
52740;SDS011;38634;52.138;9.912;2023-04-29T10:53:19;6.07;;;3.15;;
52740;SDS011;38634;52.138;9.912;2023-04-29T10:56:07;3.67;;;2.35;;
52740;SDS011;38634;52.138;9.912;2023-04-29T10:58:53;6.78;;;2.55;;
52740;SDS011;38634;52.138;9.912;2023-04-29T11:04:27;4.50;;;2.30;;
52740;SDS011;38634;52.138;9.912;2023-04-29T11:07:26;3.22;;;2.47;;
52740;SDS011;38634;52.138;9.912;2023-04-29T11:10:12;7.22;;;2.47;;
52740;SDS011;38634;52.138;9.912;2023-04-29T11:16:11;2.72;;;2.00;;
52740;SDS011;38634;52.138;9.912;2023-04-29T11:19:08;4.07;;;2.50;;
52740;SDS011;38634;52.138;9.912;2023-04-29T11:22:02;4.57;;;2.63;;
52740;SDS011;38634;52.138;9.912;2023-04-29T11:24:58;5.13;;;2.72;;
52740;SDS011;38634;52.138;9.912;2023-04-29T11:27:51;5.35;;;3.08;;
52740;SDS011;38634;52.138;9.912;2023-04-29T11:30:38;6.05;;;4.30;;
52740;SDS011;38634;52.138;9.912;2023-04-29T11:33:23;3.25;;;1.92;;
52740;SDS011;38634;52.138;9.912;2023-04-29T11:36:10;2.47;;;2.22;;
52740;SDS011;38634;52.138;9.912;2023-04-29T11:38:55;3.05;;;2.10;;
52740;SDS011;38634;52.138;9.912;2023-04-29T11:41:39;2.92;;;2.33;;
52740;SDS011;38634;52.138;9.912;2023-04-29T11:44:24;2.92;;;2.28;;
52740;SDS011;38634;52.138;9.912;2023-04-29T11:47:09;2.90;;;2.13;;
52740;SDS011;38634;52.138;9.912;2023-04-29T11:50:03;2.53;;;2.33;;
52740;SDS011;38634;52.138;9.912;2023-04-29T11:52:50;2.97;;;1.80;;
52740;SDS011;38634;52.138;9.912;2023-04-29T11:55:35;3.83;;;2.63;;
52740;SDS011;38634;52.138;9.912;2023-04-29T11:58:20;5.20;;;2.83;;
52740;SDS011;38634;52.138;9.912;2023-04-29T12:01:06;4.57;;;2.60;;
52740;SDS011;38634;52.138;9.912;2023-04-29T12:03:55;4.27;;;2.37;;
52740;SDS011;38634;52.138;9.912;2023-04-29T12:06:45;5.40;;;3.55;;
52740;SDS011;38634;52.138;9.912;2023-04-29T12:09:40;4.35;;;2.42;;
52740;SDS011;38634;52.138;9.912;2023-04-29T12:12:26;3.65;;;2.10;;
52740;SDS011;38634;52.138;9.912;2023-04-29T12:15:11;4.70;;;2.42;;
52740;SDS011;38634;52.138;9.912;2023-04-29T12:17:57;3.90;;;2.65;;
52740;SDS011;38634;52.138;9.912;2023-04-29T12:20:43;4.47;;;2.67;;
52740;SDS011;38634;52.138;9.912;2023-04-29T12:23:28;3.90;;;2.40;;
52740;SDS011;38634;52.138;9.912;2023-04-29T12:26:13;5.03;;;2.60;;
52740;SDS011;38634;52.138;9.912;2023-04-29T12:28:57;4.15;;;2.67;;
52740;SDS011;38634;52.138;9.912;2023-04-29T12:31:42;4.15;;;2.72;;
52740;SDS011;38634;52.138;9.912;2023-04-29T12:34:31;3.55;;;2.15;;
52740;SDS011;38634;52.138;9.912;2023-04-29T12:37:16;4.30;;;2.47;;
52740;SDS011;38634;52.138;9.912;2023-04-29T12:40:00;3.55;;;2.30;;
52740;SDS011;38634;52.138;9.912;2023-04-29T12:42:45;3.85;;;3.25;;
52740;SDS011;38634;52.138;9.912;2023-04-29T12:45:30;4.28;;;2.38;;
52740;SDS011;38634;52.138;9.912;2023-04-29T12:48:16;3.67;;;2.30;;
52740;SDS011;38634;52.138;9.912;2023-04-29T12:51:01;3.88;;;2.30;;
52740;SDS011;38634;52.138;9.912;2023-04-29T12:53:46;4.35;;;2.50;;
52740;SDS011;38634;52.138;9.912;2023-04-29T12:56:30;3.92;;;2.53;;
52740;SDS011;38634;52.138;9.912;2023-04-29T12:59:15;2.53;;;1.70;;
52740;SDS011;38634;52.138;9.912;2023-04-29T13:02:00;4.25;;;2.25;;
52740;SDS011;38634;52.138;9.912;2023-04-29T13:04:45;3.50;;;2.10;;
52740;SDS011;38634;52.138;9.912;2023-04-29T13:07:29;3.65;;;2.33;;
52740;SDS011;38634;52.138;9.912;2023-04-29T13:10:14;3.33;;;2.15;;
52740;SDS011;38634;52.138;9.912;2023-04-29T13:12:58;4.47;;;2.83;;
52740;SDS011;38634;52.138;9.912;2023-04-29T13:15:43;2.00;;;1.85;;
52740;SDS011;38634;52.138;9.912;2023-04-29T13:18:28;6.63;;;3.70;;
52740;SDS011;38634;52.138;9.912;2023-04-29T13:21:12;3.17;;;2.65;;
52740;SDS011;38634;52.138;9.912;2023-04-29T13:23:57;4.60;;;3.08;;
52740;SDS011;38634;52.138;9.912;2023-04-29T13:26:41;6.22;;;4.28;;
52740;SDS011;38634;52.138;9.912;2023-04-29T13:29:26;8.40;;;5.80;;
52740;SDS011;38634;52.138;9.912;2023-04-29T13:32:11;6.80;;;3.72;;
52740;SDS011;38634;52.138;9.912;2023-04-29T13:34:55;5.90;;;3.38;;
52740;SDS011;38634;52.138;9.912;2023-04-29T13:37:43;5.95;;;3.60;;
52740;SDS011;38634;52.138;9.912;2023-04-29T13:40:29;8.40;;;4.88;;
52740;SDS011;38634;52.138;9.912;2023-04-29T13:43:14;3.75;;;2.22;;
52740;SDS011;38634;52.138;9.912;2023-04-29T13:45:58;4.32;;;2.58;;
52740;SDS011;38634;52.138;9.912;2023-04-29T13:48:44;4.57;;;3.08;;
52740;SDS011;38634;52.138;9.912;2023-04-29T13:51:28;7.88;;;5.35;;
52740;SDS011;38634;52.138;9.912;2023-04-29T13:54:14;6.03;;;4.18;;
52740;SDS011;38634;52.138;9.912;2023-04-29T13:57:02;4.63;;;2.92;;
52740;SDS011;38634;52.138;9.912;2023-04-29T13:59:48;8.05;;;3.83;;
52740;SDS011;38634;52.138;9.912;2023-04-29T14:02:35;8.68;;;4.95;;
52740;SDS011;38634;52.138;9.912;2023-04-29T14:05:20;5.78;;;3.53;;
52740;SDS011;38634;52.138;9.912;2023-04-29T14:08:04;4.10;;;3.03;;
52740;SDS011;38634;52.138;9.912;2023-04-29T14:10:49;5.13;;;3.03;;
52740;SDS011;38634;52.138;9.912;2023-04-29T14:13:34;7.35;;;4.63;;
52740;SDS011;38634;52.138;9.912;2023-04-29T14:16:19;7.45;;;4.65;;
52740;SDS011;38634;52.138;9.912;2023-04-29T14:19:03;6.75;;;4.05;;
52740;SDS011;38634;52.138;9.912;2023-04-29T14:21:48;4.75;;;2.85;;
52740;SDS011;38634;52.138;9.912;2023-04-29T14:24:33;6.50;;;3.22;;
52740;SDS011;38634;52.138;9.912;2023-04-29T14:27:17;10.85;;;5.53;;
52740;SDS011;38634;52.138;9.912;2023-04-29T14:30:02;10.93;;;5.75;;
52740;SDS011;38634;52.138;9.912;2023-04-29T14:32:48;8.65;;;3.95;;
52740;SDS011;38634;52.138;9.912;2023-04-29T14:35:32;5.15;;;3.05;;
52740;SDS011;38634;52.138;9.912;2023-04-29T14:38:17;6.20;;;3.55;;
52740;SDS011;38634;52.138;9.912;2023-04-29T14:41:02;9.40;;;5.90;;
52740;SDS011;38634;52.138;9.912;2023-04-29T14:43:46;8.57;;;4.80;;
52740;SDS011;38634;52.138;9.912;2023-04-29T14:46:31;8.13;;;4.13;;
52740;SDS011;38634;52.138;9.912;2023-04-29T14:49:15;6.45;;;3.88;;
52740;SDS011;38634;52.138;9.912;2023-04-29T14:52:00;7.38;;;4.18;;
52740;SDS011;38634;52.138;9.912;2023-04-29T14:54:46;11.30;;;6.38;;
52740;SDS011;38634;52.138;9.912;2023-04-29T14:57:31;9.05;;;4.80;;
52740;SDS011;38634;52.138;9.912;2023-04-29T15:00:16;5.75;;;3.25;;
52740;SDS011;38634;52.138;9.912;2023-04-29T15:03:01;5.43;;;2.85;;
52740;SDS011;38634;52.138;9.912;2023-04-29T15:05:47;9.10;;;5.18;;
52740;SDS011;38634;52.138;9.912;2023-04-29T15:08:33;10.32;;;5.53;;
52740;SDS011;38634;52.138;9.912;2023-04-29T15:11:18;4.03;;;2.55;;
52740;SDS011;38634;52.138;9.912;2023-04-29T15:14:06;5.25;;;3.53;;
52740;SDS011;38634;52.138;9.912;2023-04-29T15:16:51;9.43;;;5.57;;
52740;SDS011;38634;52.138;9.912;2023-04-29T15:19:35;10.07;;;5.15;;
52740;SDS011;38634;52.138;9.912;2023-04-29T15:22:20;5.78;;;3.35;;
52740;SDS011;38634;52.138;9.912;2023-04-29T15:25:05;4.20;;;3.08;;
52740;SDS011;38634;52.138;9.912;2023-04-29T15:27:51;5.95;;;3.90;;
52740;SDS011;38634;52.138;9.912;2023-04-29T15:30:36;10.73;;;5.80;;
52740;SDS011;38634;52.138;9.912;2023-04-29T15:33:21;8.48;;;4.18;;
52740;SDS011;38634;52.138;9.912;2023-04-29T15:36:06;5.28;;;3.35;;
52740;SDS011;38634;52.138;9.912;2023-04-29T15:38:50;6.32;;;3.83;;
52740;SDS011;38634;52.138;9.912;2023-04-29T15:41:36;8.05;;;4.97;;
52740;SDS011;38634;52.138;9.912;2023-04-29T15:44:21;9.00;;;5.22;;
52740;SDS011;38634;52.138;9.912;2023-04-29T15:47:07;6.60;;;3.67;;
52740;SDS011;38634;52.138;9.912;2023-04-29T15:49:51;3.80;;;2.97;;
52740;SDS011;38634;52.138;9.912;2023-04-29T15:52:39;9.15;;;5.13;;
52740;SDS011;38634;52.138;9.912;2023-04-29T15:55:24;10.10;;;5.22;;
52740;SDS011;38634;52.138;9.912;2023-04-29T15:58:10;7.30;;;3.90;;
52740;SDS011;38634;52.138;9.912;2023-04-29T16:00:55;3.30;;;2.45;;
52740;SDS011;38634;52.138;9.912;2023-04-29T16:03:39;10.98;;;4.45;;
52740;SDS011;38634;52.138;9.912;2023-04-29T16:06:24;9.18;;;5.10;;
52740;SDS011;38634;52.138;9.912;2023-04-29T16:09:10;7.10;;;4.20;;
52740;SDS011;38634;52.138;9.912;2023-04-29T16:11:55;5.15;;;3.08;;
52740;SDS011;38634;52.138;9.912;2023-04-29T16:14:40;7.75;;;3.72;;
52740;SDS011;38634;52.138;9.912;2023-04-29T16:17:25;10.18;;;5.25;;
52740;SDS011;38634;52.138;9.912;2023-04-29T16:20:10;9.73;;;5.63;;
52740;SDS011;38634;52.138;9.912;2023-04-29T16:22:54;8.73;;;4.47;;
52740;SDS011;38634;52.138;9.912;2023-04-29T16:25:39;6.32;;;3.85;;
52740;SDS011;38634;52.138;9.912;2023-04-29T16:28:24;8.80;;;4.63;;
52740;SDS011;38634;52.138;9.912;2023-04-29T16:31:09;10.45;;;5.38;;
52740;SDS011;38634;52.138;9.912;2023-04-29T16:33:56;7.88;;;4.47;;
52740;SDS011;38634;52.138;9.912;2023-04-29T16:36:41;3.65;;;2.40;;
52740;SDS011;38634;52.138;9.912;2023-04-29T16:39:26;7.15;;;3.50;;
52740;SDS011;38634;52.138;9.912;2023-04-29T16:42:11;9.55;;;5.35;;
52740;SDS011;38634;52.138;9.912;2023-04-29T16:44:55;6.85;;;4.28;;
52740;SDS011;38634;52.138;9.912;2023-04-29T16:47:40;6.20;;;3.67;;
52740;SDS011;38634;52.138;9.912;2023-04-29T16:50:25;2.90;;;2.22;;
52740;SDS011;38634;52.138;9.912;2023-04-29T16:53:10;3.97;;;2.97;;
52740;SDS011;38634;52.138;9.912;2023-04-29T16:55:55;7.82;;;4.22;;
52740;SDS011;38634;52.138;9.912;2023-04-29T16:58:40;6.63;;;4.03;;
52740;SDS011;38634;52.138;9.912;2023-04-29T17:01:25;5.13;;;2.95;;
52740;SDS011;38634;52.138;9.912;2023-04-29T17:04:10;4.78;;;2.97;;
52740;SDS011;38634;52.138;9.912;2023-04-29T17:06:54;6.85;;;4.53;;
52740;SDS011;38634;52.138;9.912;2023-04-29T17:09:39;7.90;;;4.82;;
52740;SDS011;38634;52.138;9.912;2023-04-29T17:12:24;5.10;;;3.20;;
52740;SDS011;38634;52.138;9.912;2023-04-29T17:15:09;4.72;;;2.90;;
52740;SDS011;38634;52.138;9.912;2023-04-29T17:17:53;5.30;;;3.08;;
52740;SDS011;38634;52.138;9.912;2023-04-29T17:20:38;3.47;;;2.25;;
52740;SDS011;38634;52.138;9.912;2023-04-29T17:23:23;7.60;;;2.85;;
52740;SDS011;38634;52.138;9.912;2023-04-29T17:26:08;6.72;;;2.42;;
52740;SDS011;38634;52.138;9.912;2023-04-29T17:28:52;8.30;;;2.67;;
52740;SDS011;38634;52.138;9.912;2023-04-29T17:31:37;7.03;;;2.55;;
52740;SDS011;38634;52.138;9.912;2023-04-29T17:34:27;5.70;;;2.42;;
52740;SDS011;38634;52.138;9.912;2023-04-29T17:37:13;4.15;;;1.80;;
52740;SDS011;38634;52.138;9.912;2023-04-29T17:40:00;3.60;;;1.83;;
52740;SDS011;38634;52.138;9.912;2023-04-29T17:42:46;3.38;;;1.85;;
52740;SDS011;38634;52.138;9.912;2023-04-29T17:45:30;3.50;;;1.70;;
52740;SDS011;38634;52.138;9.912;2023-04-29T17:48:15;4.20;;;1.85;;
52740;SDS011;38634;52.138;9.912;2023-04-29T17:51:02;4.95;;;1.92;;
52740;SDS011;38634;52.138;9.912;2023-04-29T17:53:46;5.03;;;2.15;;
52740;SDS011;38634;52.138;9.912;2023-04-29T17:56:31;2.90;;;1.73;;
52740;SDS011;38634;52.138;9.912;2023-04-29T17:59:17;1.67;;;1.20;;
52740;SDS011;38634;52.138;9.912;2023-04-29T18:02:02;2.80;;;2.00;;
52740;SDS011;38634;52.138;9.912;2023-04-29T18:04:46;3.03;;;1.75;;
52740;SDS011;38634;52.138;9.912;2023-04-29T18:07:31;4.47;;;2.38;;
52740;SDS011;38634;52.138;9.912;2023-04-29T18:10:16;4.57;;;2.30;;
52740;SDS011;38634;52.138;9.912;2023-04-29T18:13:01;4.28;;;2.35;;
52740;SDS011;38634;52.138;9.912;2023-04-29T18:15:45;6.45;;;2.33;;
52740;SDS011;38634;52.138;9.912;2023-04-29T18:18:30;4.22;;;2.20;;
52740;SDS011;38634;52.138;9.912;2023-04-29T18:21:18;4.45;;;2.72;;
52740;SDS011;38634;52.138;9.912;2023-04-29T18:24:07;7.47;;;3.65;;
52740;SDS011;38634;52.138;9.912;2023-04-29T18:26:51;4.35;;;2.33;;
52740;SDS011;38634;52.138;9.912;2023-04-29T18:29:36;4.78;;;2.60;;
52740;SDS011;38634;52.138;9.912;2023-04-29T18:32:20;3.30;;;1.73;;
52740;SDS011;38634;52.138;9.912;2023-04-29T18:35:05;3.88;;;2.28;;
52740;SDS011;38634;52.138;9.912;2023-04-29T18:37:50;5.43;;;2.22;;
52740;SDS011;38634;52.138;9.912;2023-04-29T18:40:35;6.85;;;2.35;;
52740;SDS011;38634;52.138;9.912;2023-04-29T18:43:19;6.95;;;2.35;;
52740;SDS011;38634;52.138;9.912;2023-04-29T18:46:07;4.45;;;2.20;;
52740;SDS011;38634;52.138;9.912;2023-04-29T18:48:51;5.20;;;2.53;;
52740;SDS011;38634;52.138;9.912;2023-04-29T18:51:36;3.70;;;2.13;;
52740;SDS011;38634;52.138;9.912;2023-04-29T18:54:20;3.70;;;2.30;;
52740;SDS011;38634;52.138;9.912;2023-04-29T18:57:05;4.20;;;2.28;;
52740;SDS011;38634;52.138;9.912;2023-04-29T18:59:50;4.45;;;2.53;;
52740;SDS011;38634;52.138;9.912;2023-04-29T19:02:35;4.28;;;2.33;;
52740;SDS011;38634;52.138;9.912;2023-04-29T19:05:21;2.63;;;1.80;;
52740;SDS011;38634;52.138;9.912;2023-04-29T19:08:06;4.22;;;2.35;;
52740;SDS011;38634;52.138;9.912;2023-04-29T19:10:50;2.60;;;1.73;;
52740;SDS011;38634;52.138;9.912;2023-04-29T19:13:36;4.03;;;2.42;;
52740;SDS011;38634;52.138;9.912;2023-04-29T19:16:21;3.17;;;2.03;;
52740;SDS011;38634;52.138;9.912;2023-04-29T19:19:06;2.80;;;1.80;;
52740;SDS011;38634;52.138;9.912;2023-04-29T19:21:50;3.22;;;1.80;;
52740;SDS011;38634;52.138;9.912;2023-04-29T19:24:35;4.25;;;2.30;;
52740;SDS011;38634;52.138;9.912;2023-04-29T19:27:20;4.05;;;2.08;;
52740;SDS011;38634;52.138;9.912;2023-04-29T19:30:04;3.63;;;2.17;;
52740;SDS011;38634;52.138;9.912;2023-04-29T19:32:51;4.03;;;2.42;;
52740;SDS011;38634;52.138;9.912;2023-04-29T19:35:35;3.95;;;3.00;;
52740;SDS011;38634;52.138;9.912;2023-04-29T19:38:20;3.95;;;2.10;;
52740;SDS011;38634;52.138;9.912;2023-04-29T19:41:04;2.65;;;1.90;;
52740;SDS011;38634;52.138;9.912;2023-04-29T19:43:49;3.55;;;2.33;;
52740;SDS011;38634;52.138;9.912;2023-04-29T19:46:33;5.15;;;2.83;;
52740;SDS011;38634;52.138;9.912;2023-04-29T19:49:18;4.93;;;3.30;;
52740;SDS011;38634;52.138;9.912;2023-04-29T19:52:03;3.40;;;2.05;;
52740;SDS011;38634;52.138;9.912;2023-04-29T19:54:49;4.30;;;2.40;;
52740;SDS011;38634;52.138;9.912;2023-04-29T19:57:33;3.88;;;2.30;;
52740;SDS011;38634;52.138;9.912;2023-04-29T20:00:18;4.65;;;2.35;;
52740;SDS011;38634;52.138;9.912;2023-04-29T20:03:02;4.38;;;2.83;;
52740;SDS011;38634;52.138;9.912;2023-04-29T20:05:47;3.30;;;2.25;;
52740;SDS011;38634;52.138;9.912;2023-04-29T20:08:32;3.67;;;2.53;;
52740;SDS011;38634;52.138;9.912;2023-04-29T20:11:16;3.50;;;2.30;;
52740;SDS011;38634;52.138;9.912;2023-04-29T20:14:01;6.32;;;2.60;;
52740;SDS011;38634;52.138;9.912;2023-04-29T20:16:46;3.97;;;2.38;;
52740;SDS011;38634;52.138;9.912;2023-04-29T20:19:31;4.43;;;2.55;;
52740;SDS011;38634;52.138;9.912;2023-04-29T20:22:17;4.45;;;2.72;;
52740;SDS011;38634;52.138;9.912;2023-04-29T20:25:02;4.05;;;2.30;;
52740;SDS011;38634;52.138;9.912;2023-04-29T20:27:47;3.83;;;2.63;;
52740;SDS011;38634;52.138;9.912;2023-04-29T20:30:31;4.60;;;2.55;;
52740;SDS011;38634;52.138;9.912;2023-04-29T20:33:17;3.88;;;2.70;;
52740;SDS011;38634;52.138;9.912;2023-04-29T20:36:02;2.67;;;2.22;;
52740;SDS011;38634;52.138;9.912;2023-04-29T20:38:48;3.50;;;2.25;;
52740;SDS011;38634;52.138;9.912;2023-04-29T20:41:33;6.50;;;2.65;;
52740;SDS011;38634;52.138;9.912;2023-04-29T20:44:17;8.82;;;2.72;;
52740;SDS011;38634;52.138;9.912;2023-04-29T20:47:02;3.35;;;2.25;;
52740;SDS011;38634;52.138;9.912;2023-04-29T20:49:48;4.32;;;2.58;;
52740;SDS011;38634;52.138;9.912;2023-04-29T20:52:33;3.40;;;2.13;;
52740;SDS011;38634;52.138;9.912;2023-04-29T20:55:18;2.53;;;1.63;;
52740;SDS011;38634;52.138;9.912;2023-04-29T20:58:03;4.13;;;2.30;;
52740;SDS011;38634;52.138;9.912;2023-04-29T21:00:48;6.72;;;2.67;;
52740;SDS011;38634;52.138;9.912;2023-04-29T21:03:32;3.38;;;2.88;;
52740;SDS011;38634;52.138;9.912;2023-04-29T21:06:17;3.72;;;2.50;;
52740;SDS011;38634;52.138;9.912;2023-04-29T21:09:02;4.25;;;3.20;;
52740;SDS011;38634;52.138;9.912;2023-04-29T21:11:46;5.68;;;5.07;;
52740;SDS011;38634;52.138;9.912;2023-04-29T21:14:31;4.72;;;2.72;;
52740;SDS011;38634;52.138;9.912;2023-04-29T21:17:16;4.78;;;3.38;;
52740;SDS011;38634;52.138;9.912;2023-04-29T21:20:01;4.47;;;2.80;;
52740;SDS011;38634;52.138;9.912;2023-04-29T21:22:46;3.95;;;2.80;;
52740;SDS011;38634;52.138;9.912;2023-04-29T21:25:32;3.90;;;2.97;;
52740;SDS011;38634;52.138;9.912;2023-04-29T21:28:16;3.92;;;2.78;;
52740;SDS011;38634;52.138;9.912;2023-04-29T21:31:01;4.35;;;2.75;;
52740;SDS011;38634;52.138;9.912;2023-04-29T21:33:46;3.67;;;2.78;;
52740;SDS011;38634;52.138;9.912;2023-04-29T21:36:30;4.85;;;2.95;;
52740;SDS011;38634;52.138;9.912;2023-04-29T21:39:15;4.93;;;2.75;;
52740;SDS011;38634;52.138;9.912;2023-04-29T21:41:59;4.75;;;2.70;;
52740;SDS011;38634;52.138;9.912;2023-04-29T21:44:45;2.88;;;2.20;;
52740;SDS011;38634;52.138;9.912;2023-04-29T21:47:30;4.22;;;2.50;;
52740;SDS011;38634;52.138;9.912;2023-04-29T21:50:14;3.95;;;2.35;;
52740;SDS011;38634;52.138;9.912;2023-04-29T21:52:59;5.85;;;2.38;;
52740;SDS011;38634;52.138;9.912;2023-04-29T21:55:44;3.22;;;2.45;;
52740;SDS011;38634;52.138;9.912;2023-04-29T21:58:29;5.55;;;2.63;;
52740;SDS011;38634;52.138;9.912;2023-04-29T22:01:13;3.72;;;2.35;;
52740;SDS011;38634;52.138;9.912;2023-04-29T22:04:09;5.47;;;2.80;;
52740;SDS011;38634;52.138;9.912;2023-04-29T22:06:54;4.82;;;3.15;;
52740;SDS011;38634;52.138;9.912;2023-04-29T22:09:39;4.15;;;2.50;;
52740;SDS011;38634;52.138;9.912;2023-04-29T22:12:24;5.75;;;2.90;;
52740;SDS011;38634;52.138;9.912;2023-04-29T22:15:09;4.20;;;2.67;;
52740;SDS011;38634;52.138;9.912;2023-04-29T22:17:54;5.88;;;3.03;;
52740;SDS011;38634;52.138;9.912;2023-04-29T22:20:38;3.85;;;2.53;;
52740;SDS011;38634;52.138;9.912;2023-04-29T22:23:23;3.95;;;2.45;;
52740;SDS011;38634;52.138;9.912;2023-04-29T22:26:08;5.18;;;2.85;;
52740;SDS011;38634;52.138;9.912;2023-04-29T22:28:52;4.85;;;2.80;;
52740;SDS011;38634;52.138;9.912;2023-04-29T22:31:37;5.88;;;3.70;;
52740;SDS011;38634;52.138;9.912;2023-04-29T22:34:21;4.80;;;2.63;;
52740;SDS011;38634;52.138;9.912;2023-04-29T22:37:06;5.03;;;3.10;;
52740;SDS011;38634;52.138;9.912;2023-04-29T22:39:51;7.25;;;3.85;;
52740;SDS011;38634;52.138;9.912;2023-04-29T22:42:35;3.40;;;2.22;;
52740;SDS011;38634;52.138;9.912;2023-04-29T22:45:20;5.05;;;2.80;;
52740;SDS011;38634;52.138;9.912;2023-04-29T22:48:04;5.75;;;2.80;;
52740;SDS011;38634;52.138;9.912;2023-04-29T22:50:53;4.32;;;2.67;;
52740;SDS011;38634;52.138;9.912;2023-04-29T22:53:39;5.38;;;2.33;;
52740;SDS011;38634;52.138;9.912;2023-04-29T22:56:23;3.67;;;2.85;;
52740;SDS011;38634;52.138;9.912;2023-04-29T22:59:08;3.65;;;2.38;;
52740;SDS011;38634;52.138;9.912;2023-04-29T23:01:53;8.90;;;3.03;;
52740;SDS011;38634;52.138;9.912;2023-04-29T23:04:37;9.05;;;2.90;;
52740;SDS011;38634;52.138;9.912;2023-04-29T23:07:22;5.07;;;2.47;;
52740;SDS011;38634;52.138;9.912;2023-04-29T23:10:07;4.82;;;2.28;;
52740;SDS011;38634;52.138;9.912;2023-04-29T23:12:52;3.90;;;2.72;;
52740;SDS011;38634;52.138;9.912;2023-04-29T23:15:37;10.43;;;3.15;;
52740;SDS011;38634;52.138;9.912;2023-04-29T23:18:21;2.00;;;1.80;;
52740;SDS011;38634;52.138;9.912;2023-04-29T23:21:06;3.55;;;2.28;;
52740;SDS011;38634;52.138;9.912;2023-04-29T23:23:51;3.67;;;2.38;;
